Hellevoetsluis, Netherlands
Current Conditions -  °F | °C
As of 9:25 AM on Monday 24 Nov 2014 (Local Time) from EHRD Reporting Station
Clear Clear  
Wind Chill: 41°   Ceiling: Unl
Heat Index: 41°   Visibility: 6mi
Dew Point: 39°   Wind: 3mph
Humidity: 93%   Direction: 220°SW
Pressure: 30.24"   Gusts: NA
Location:  51.83°N, 4.13°E
Report Text: EHRD 240825Z AUTO 22003KT 9999 NCD 05/04 Q1024 NOSIG
Loading
Personal Weather Stations






























Interactive Weather Map New forecast layout! Learn more

10-Day Weather Forecast

Advertisements
Track Severe Weather on mobile